GCXO METAR and TAF | Updated Today

GCXO METAR

Tenerife Norte Airport

Observation time: 32 min. ago

GCXO 251930Z 36008KT 330V050 9999 FEW022 15/11 Q1020 NOSIG

Need help? Read our tutorial on how to read METARs or read the parsed version below.

Tenerife Norte Airport (GCXO) METAR

  • Weather conditions on Wed, 25 May 2022 19:30:00 +0000 (32 min. ago):
  • Present conditions: Dry
  • Clouds: A few at 671 meters
  • Visibility: Greater than 10 km
  • Wind: 360 degrees at 8 knots
  • Temperature: 15 celsius
  • Dew point: 11 celsius
  • Pressure: 1020 millibars
  • Remarks: None


Useful to know...

GCXO TAF

Tenerife Norte Airport

TAF GCXO 251400Z 2515/2615 33012KT 9999 SCT025 TX21/2614Z TN14/2606Z PROB30 TEMPO 2521/2606 BKN010
Observation time: 6:02 hr. ago
Need help? Read our tutorial on how to read TAFs or read the parsed version below.

Parsed version of TAF for Tenerife Norte Airport (GCXO)

  • From 25 May at 15:00 UTC, to day 26 of the month at 15:00 UTC
  • Clouds: Scattered at 762 meters
  • Visibility: Greater than 10 km
  • Wind: 330 degrees at 12
  • Expected to arise temporarily, from 25 May at 21:00 UTC, to day 26 of the month at 06:00 UTC
    Probability of 30%
  • Clouds: Broken sky at 305 meters